Playa De Oro International Airport
MMZO : now visible

Airfield :











YOU CAN JOIN US ON...

 
LOGIN :

Register | Disclaimer

   EN    FR    IT 

 









Legend :    VFR   Marginal VFR   IFR   Intensive IFR   Very Intensive IFR
Visi :
Ceiling :
>= 8 km
>= 3000ft
5 to 8 km
1000 to 3000 ft
1500m to 5 km
500 to 1000 ft
800 to 1500m
200 to 500 ft
< 800m
< 200 ft
Symbols :   Thunderstorms  Fog  Heavy snow  Heavy precipitations  Wind > 20 kt






- Airport Elevation : 30 ft
- IATA code : ZLO


MMZO - Playa De Oro International

CURRENT METAR :
  • 191940Z 25010KT 12SM SCT250 31/26 A2988 RMK 8/006

EXPIRED METARs :
  • 191840Z 21010KT 12SM FEW020 SCT250 31/26 A2989 RMK 8/106
  • 191740Z 21010KT 12SM SCT250 31/26 A2991 RMK SLP090 8/006
  • 191640Z 21010KT 12SM SCT250 31/26 A2990 RMK 8/006
  • 191541Z 00000KT 12SM SCT250 32/26 A2990 RMK 8/006

TAF TAF MMZO
Valid from the 19 at 18:00 until the 20 at 18:00 UTC


191652Z 1918/2018 24010KT P6SM SCT020
BECMG 1922/1923 BKN020
PROB40 2000/2004 5SM RA BKN015CB
FM200400 32004KT 6SM HZ SCT010 BKN015CB BKN250
FM201400 01004KT P6SM SCT015 BKN220
FM201600 20006KT P6SM SCT220
MMFR FIR / North America



MET'MAP, your aeronautical weather chart ! - Copyright ORBIFLY December 2007 - Disclaimer

ORBIFLY MET'MAP TEAM :

Programming & Development : Alexandra Zaïnal
Original concept : Baudouin d'Aumeries
Technical & hardware support : Manuel Goepfert
Assistance : Marc-Olivier Méhu




SOURCES & CREDITS :

   NOAA       Earth
Advisory